createdAt,value
2022-11-21T00:03:11.272Z,99741.41
2022-11-21T00:08:14.318Z,99737.88
2022-11-21T00:13:18.481Z,99751.84
2022-11-21T00:18:20.323Z,99751.84
2022-11-21T00:23:22.105Z,99741.53
2022-11-21T00:28:25.311Z,99737.06
2022-11-21T00:33:27.001Z,99741.41
2022-11-21T00:38:28.740Z,99739.56
2022-11-21T00:43:31.783Z,99732.59
2022-11-21T00:48:33.540Z,99739.25
2022-11-21T00:53:35.276Z,99734.16
2022-11-21T00:58:38.391Z,99722.31
2022-11-21T01:03:40.198Z,99712.94
2022-11-21T01:08:43.304Z,99716.28
2022-11-21T01:13:46.937Z,99703.31
2022-11-21T01:18:49.029Z,99697.03
2022-11-21T01:23:50.868Z,99701.44
2022-11-21T01:28:53.983Z,99699.72
2022-11-21T01:33:58.335Z,99703.22
2022-11-21T01:39:01.156Z,99704.25
2022-11-21T01:44:10.701Z,99705.81
2022-11-21T01:49:13.768Z,99704.09
2022-11-21T01:54:17.850Z,99699.63
2022-11-21T01:59:22.692Z,99708.09
2022-11-21T02:04:25.523Z,99700.28
2022-11-21T02:09:27.604Z,99697.53
2022-11-21T02:14:30.711Z,99692.56
2022-11-21T02:19:35.406Z,99695.69
2022-11-21T02:24:39.804Z,99701.66
2022-11-21T02:29:42.959Z,99712.63
2022-11-21T02:34:44.689Z,99711.00
2022-11-21T02:39:46.425Z,99717.75
2022-11-21T02:44:53.770Z,99719.38
2022-11-21T02:49:58.098Z,99720.19
2022-11-21T02:54:59.849Z,99725.50
2022-11-21T03:00:03.575Z,99719.41
2022-11-21T03:05:06.988Z,99721.91
2022-11-21T03:10:09.347Z,99722.84
2022-11-21T03:15:13.297Z,99724.41
2022-11-21T03:20:15.486Z,99726.28
2022-11-21T03:25:17.831Z,99727.69
2022-11-21T03:30:21.232Z,99725.94
2022-11-21T03:35:23.052Z,99735.44
2022-11-21T03:40:24.869Z,99746.03
2022-11-21T03:45:28.440Z,99749.97
2022-11-21T03:50:30.297Z,99754.84
2022-11-21T03:55:32.033Z,99763.00
2022-11-21T04:00:35.134Z,99762.97
2022-11-21T04:05:36.891Z,99760.91
2022-11-21T04:10:38.731Z,99779.78
2022-11-21T04:15:42.458Z,99774.88
2022-11-21T04:20:44.367Z,99776.31
2022-11-21T04:25:46.136Z,99782.09
2022-11-21T04:30:49.285Z,99780.31
2022-11-21T04:35:51.066Z,99779.53
2022-11-21T04:40:52.836Z,99773.94
2022-11-21T04:45:55.924Z,99778.25
2022-11-21T04:50:57.987Z,99777.72
2022-11-21T04:56:00.206Z,99785.19
2022-11-21T05:01:07.819Z,99770.50
2022-11-21T05:06:09.671Z,99768.94
2022-11-21T05:11:30.303Z,99769.78
2022-11-21T05:16:33.849Z,99766.53
2022-11-21T05:21:35.677Z,99765.16
2022-11-21T05:26:38.107Z,99768.72
2022-11-21T05:31:41.366Z,99784.22
2022-11-21T05:36:43.179Z,99793.72
2022-11-21T05:41:44.925Z,99785.66
2022-11-21T05:46:47.990Z,99794.41
2022-11-21T05:51:49.748Z,99789.25
2022-11-21T05:56:51.498Z,99796.13
2022-11-21T06:02:13.461Z,99795.25
2022-11-21T06:07:15.240Z,99794.22
2022-11-21T06:12:20.272Z,99789.84
2022-11-21T06:17:25.957Z,99788.75
2022-11-21T06:22:27.678Z,99791.34
2022-11-21T06:27:29.366Z,99795.47
2022-11-21T06:32:36.064Z,99795.19
2022-11-21T06:37:37.765Z,99806.38
2022-11-21T06:42:39.487Z,99811.53
2022-11-21T06:47:42.903Z,99810.44
2022-11-21T06:52:44.641Z,99813.00
2022-11-21T06:57:46.382Z,99811.94
2022-11-21T07:02:49.507Z,99816.13
2022-11-21T07:07:51.242Z,99823.56
2022-11-21T07:13:12.754Z,99829.72
2022-11-21T07:18:15.915Z,99845.13
2022-11-21T07:23:17.657Z,99852.41
2022-11-21T07:28:19.455Z,99849.81
2022-11-21T07:33:22.609Z,99845.59
2022-11-21T07:38:24.440Z,99845.81
2022-11-21T07:43:26.199Z,99845.66
2022-11-21T07:48:29.466Z,99844.22
2022-11-21T07:53:32.287Z,99854.56
2022-11-21T07:58:34.108Z,99849.09
2022-11-21T08:03:37.270Z,99848.91
2022-11-21T08:08:39.143Z,99843.94
2022-11-21T08:13:40.871Z,99848.75
2022-11-21T08:18:44.003Z,99842.69
2022-11-21T08:23:45.743Z,99850.88
2022-11-21T08:28:47.698Z,99845.72
2022-11-21T08:33:50.836Z,99848.41
2022-11-21T08:38:52.544Z,99842.66
2022-11-21T08:43:54.282Z,99848.84
2022-11-21T08:48:57.382Z,99852.09
2022-11-21T08:53:59.550Z,99843.03
2022-11-21T08:59:01.262Z,99846.28
2022-11-21T09:04:04.592Z,99841.38
2022-11-21T09:09:06.529Z,99846.34
2022-11-21T09:14:27.245Z,99851.31
2022-11-21T09:19:30.855Z,99854.06
2022-11-21T09:24:32.860Z,99856.63
2022-11-21T09:29:34.579Z,99857.50
2022-11-21T09:34:37.758Z,99862.75
2022-11-21T09:39:39.513Z,99873.91
2022-11-21T09:45:03.983Z,99880.66
2022-11-21T09:50:19.475Z,99873.72
2022-11-21T09:55:24.287Z,99867.47
2022-11-21T10:00:26.151Z,99861.31
2022-11-21T10:05:35.266Z,99864.63
2022-11-21T10:10:46.622Z,99866.50
2022-11-21T10:15:54.665Z,99858.72
2022-11-21T10:21:00.531Z,99853.44
2022-11-21T10:26:09.845Z,99845.88
2022-11-21T10:31:12.081Z,99836.50
2022-11-21T10:36:20.918Z,99829.59
2022-11-21T10:41:37.003Z,99839.13
2022-11-21T10:46:38.759Z,99840.88
2022-11-21T10:51:44.158Z,99830.38
2022-11-21T10:56:45.871Z,99835.53
2022-11-21T11:01:54.716Z,99825.06
2022-11-21T11:06:59.937Z,99830.38
2022-11-21T11:12:42.584Z,99821.75
2022-11-21T11:17:44.349Z,99823.47
2022-11-21T11:22:48.125Z,99816.50
2022-11-21T11:27:49.981Z,99817.94
2022-11-21T11:32:51.721Z,99819.00
2022-11-21T11:37:59.532Z,99803.38
2022-11-21T11:43:39.216Z,99782.66
2022-11-21T11:49:03.740Z,99790.53
2022-11-21T11:54:07.821Z,99778.53
2022-11-21T11:59:13.288Z,99768.19
2022-11-21T12:04:16.305Z,99765.63
2022-11-21T12:09:23.293Z,99760.41
2022-11-21T12:14:55.324Z,99738.66
2022-11-21T12:19:57.063Z,99738.56
2022-11-21T12:25:00.446Z,99715.19
2022-11-21T12:30:32.584Z,99723.75
2022-11-21T12:35:50.612Z,99704.66
2022-11-21T12:40:59.099Z,99702.63
2022-11-21T12:46:03.026Z,99691.16
2022-11-21T12:51:52.213Z,99692.75
2022-11-21T12:56:57.953Z,99678.84
2022-11-21T13:02:03.092Z,99680.63
2022-11-21T13:07:07.072Z,99676.28
2022-11-21T13:12:13.379Z,99670.59
2022-11-21T13:17:26.283Z,99672.72
2022-11-21T13:22:56.714Z,99688.22
2022-11-21T13:28:22.772Z,99683.94
2022-11-21T13:33:52.786Z,99677.56
2022-11-21T13:39:33.345Z,99665.59
2022-11-21T13:44:40.605Z,99659.72
2022-11-21T13:49:46.985Z,99651.03
2022-11-21T13:55:18.430Z,99665.78
2022-11-21T14:00:32.762Z,99644.97
2022-11-21T14:05:47.906Z,99646.78
2022-11-21T14:10:50.618Z,99646.75
2022-11-21T14:16:05.487Z,99651.06
2022-11-21T14:21:09.084Z,99654.50
2022-11-21T14:26:12.111Z,99653.72
2022-11-21T14:31:15.315Z,99645.84
2022-11-21T14:36:18.548Z,99627.78
2022-11-21T14:41:25.829Z,99635.59
2022-11-21T14:46:29.661Z,99626.97
2022-11-21T14:51:31.401Z,99623.47
2022-11-21T14:56:33.332Z,99617.41
2022-11-21T15:01:36.749Z,99609.53
2022-11-21T15:06:40.767Z,99600.03
2022-11-21T15:11:43.986Z,99601.69
2022-11-21T15:16:47.893Z,99592.97
2022-11-21T15:21:50.239Z,99593.00
2022-11-21T15:26:51.997Z,99582.53
2022-11-21T15:32:08.051Z,99579.72
2022-11-21T15:37:13.060Z,99574.25
2022-11-21T15:42:27.994Z,99575.41
2022-11-21T15:47:31.150Z,99565.31
2022-11-21T15:52:36.877Z,99557.13
2022-11-21T15:57:38.628Z,99539.69
2022-11-21T16:02:41.776Z,99526.22
2022-11-21T16:07:43.634Z,99529.94
2022-11-21T16:12:45.457Z,99528.22
2022-11-21T16:17:48.558Z,99528.09
2022-11-21T16:22:50.360Z,99527.44
2022-11-21T16:27:52.123Z,99525.75
2022-11-21T16:32:56.231Z,99521.84
2022-11-21T16:37:58.062Z,99516.34
2022-11-21T16:43:07.643Z,99517.81
2022-11-21T16:48:10.812Z,99520.16
2022-11-21T16:53:12.974Z,99507.34
2022-11-21T16:58:14.864Z,99496.25
2022-11-21T17:03:18.034Z,99514.47
2022-11-21T17:08:19.871Z,99509.19
2022-11-21T17:13:21.649Z,99499.75
2022-11-21T17:18:24.831Z,99502.25
2022-11-21T17:23:26.684Z,99490.25
2022-11-21T17:28:28.488Z,99492.81
2022-11-21T17:33:31.703Z,99485.19
2022-11-21T17:38:33.500Z,99475.59
2022-11-21T17:43:35.299Z,99467.78
2022-11-21T17:48:38.578Z,99454.81
2022-11-21T17:53:41.818Z,99430.47
2022-11-21T17:58:43.550Z,99420.91
2022-11-21T18:03:47.107Z,99426.16
2022-11-21T18:08:49.063Z,99416.81
2022-11-21T18:13:50.824Z,99398.78
2022-11-21T18:18:54.052Z,99385.78
2022-11-21T18:23:57.323Z,99377.16
2022-11-21T18:29:34.641Z,99361.78
2022-11-21T18:34:23.206Z,99347.63
2022-11-21T18:39:26.759Z,99336.63
2022-11-21T18:47:20.514Z,99315.13
2022-11-21T18:52:22.833Z,99314.34
2022-11-21T18:57:24.750Z,99313.44
2022-11-21T19:02:28.119Z,99324.25
2022-11-21T19:07:29.973Z,99335.47
2022-11-21T19:12:36.257Z,99328.09
2022-11-21T19:17:42.394Z,99303.69
2022-11-21T19:22:44.180Z,99305.34
2022-11-21T19:27:45.954Z,99295.91
2022-11-21T19:32:49.055Z,99310.09
2022-11-21T19:37:50.891Z,99308.31
2022-11-21T19:42:52.747Z,99305.16
2022-11-21T19:47:58.281Z,99302.72
2022-11-21T19:53:00.159Z,99297.53
2022-11-21T19:58:01.941Z,99303.66
2022-11-21T20:03:05.161Z,99307.97
2022-11-21T20:08:16.398Z,99300.84
2022-11-21T20:13:19.353Z,99293.03
2022-11-21T20:18:22.772Z,99297.38
2022-11-21T20:23:24.596Z,99301.03
2022-11-21T20:28:26.623Z,99312.22
2022-11-21T20:33:29.781Z,99323.38
2022-11-21T20:38:31.983Z,99332.16
2022-11-21T20:44:10.558Z,99327.06
2022-11-21T20:48:57.909Z,99319.25
2022-11-21T20:54:03.358Z,99324.47
2022-11-21T20:59:05.818Z,99325.34
2022-11-21T21:04:12.095Z,99319.34
2022-11-21T21:09:14.200Z,99322.03
2022-11-21T21:14:15.956Z,99296.19
2022-11-21T21:19:19.236Z,99285.84
2022-11-21T21:24:21.116Z,99291.91
2022-11-21T21:29:23.169Z,99302.19
2022-11-21T21:34:26.302Z,99307.50
2022-11-21T21:39:28.199Z,99305.75
2022-11-21T21:44:33.399Z,99314.38
2022-11-21T21:49:37.124Z,99314.47
2022-11-21T21:54:38.877Z,99290.34
2022-11-21T21:59:40.835Z,99285.97
2022-11-21T22:04:46.973Z,99281.72
2022-11-21T22:09:52.391Z,99281.78
2022-11-21T22:14:54.141Z,99274.88
2022-11-21T22:19:57.275Z,99278.25
2022-11-21T22:24:59.085Z,99276.50
2022-11-21T22:30:00.870Z,99267.09
2022-11-21T22:35:04.427Z,99263.53
2022-11-21T22:40:07.020Z,99252.34
2022-11-21T22:45:09.907Z,99239.41
2022-11-21T22:50:13.377Z,99245.53
2022-11-21T22:55:15.263Z,99237.75
2022-11-21T23:00:18.148Z,99234.28
2022-11-21T23:05:21.301Z,99221.34
2022-11-21T23:10:23.085Z,99213.56
2022-11-21T23:15:24.982Z,99206.66
2022-11-21T23:20:28.154Z,99201.47
2022-11-21T23:25:30.219Z,99191.94
2022-11-21T23:30:32.053Z,99181.59
2022-11-21T23:35:35.129Z,99173.81
2022-11-21T23:40:36.978Z,99172.94
2022-11-21T23:45:38.790Z,99166.94
2022-11-21T23:50:41.935Z,99160.88
2022-11-21T23:55:43.913Z,99167.75
